createdAt,value
2018-12-26T00:01:40.608Z,100800.81
2018-12-26T00:04:09.806Z,100793.55
2018-12-26T00:06:38.840Z,100790.88
2018-12-26T00:09:07.930Z,100791.23
2018-12-26T00:11:38.629Z,100786.03
2018-12-26T00:14:07.731Z,100783.84
2018-12-26T00:16:36.786Z,100788.64
2018-12-26T00:19:05.852Z,100791.30
2018-12-26T00:21:34.916Z,100794.23
2018-12-26T00:24:04.174Z,100800.19
2018-12-26T00:26:33.342Z,100800.88
2018-12-26T00:29:02.810Z,100806.33
2018-12-26T00:31:31.909Z,100808.16
2018-12-26T00:34:00.927Z,100809.81
2018-12-26T00:36:30.999Z,100813.25
2018-12-26T00:39:00.055Z,100809.98
2018-12-26T00:41:29.076Z,100810.24
2018-12-26T00:43:58.163Z,100814.90
2018-12-26T00:46:29.340Z,100815.72
2018-12-26T00:48:58.392Z,100812.17
2018-12-26T00:51:29.670Z,100801.47
2018-12-26T00:53:58.713Z,100795.34
2018-12-26T00:56:27.819Z,100788.31
2018-12-26T00:58:56.852Z,100792.33
2018-12-26T01:01:28.250Z,100795.92
2018-12-26T01:03:57.388Z,100791.91
2018-12-26T01:06:28.528Z,100784.91
2018-12-26T01:08:58.726Z,100790.41
2018-12-26T01:11:29.308Z,100799.96
2018-12-26T01:13:58.391Z,100797.18
2018-12-26T01:16:27.512Z,100797.58
2018-12-26T01:18:56.619Z,100791.09
2018-12-26T01:21:25.747Z,100791.50
2018-12-26T01:23:54.845Z,100786.37
2018-12-26T01:26:23.938Z,100792.05
2018-12-26T01:28:53.063Z,100789.04
2018-12-26T01:31:22.199Z,100784.77
2018-12-26T01:33:51.231Z,100788.27
2018-12-26T01:36:20.255Z,100784.84
2018-12-26T01:38:49.372Z,100779.29
2018-12-26T01:41:18.440Z,100775.38
2018-12-26T01:43:47.542Z,100777.16
2018-12-26T01:46:16.617Z,100781.22
2018-12-26T01:48:45.638Z,100784.83
2018-12-26T01:51:15.913Z,100778.44
2018-12-26T01:53:45.094Z,100790.16
2018-12-26T01:56:14.731Z,100789.11
2018-12-26T01:58:47.888Z,100792.53
2018-12-26T02:01:16.945Z,100789.27
2018-12-26T02:03:45.978Z,100786.08
2018-12-26T02:06:16.582Z,100782.76
2018-12-26T02:08:45.674Z,100784.02
2018-12-26T02:11:16.258Z,100777.41
2018-12-26T02:13:45.528Z,100774.32
2018-12-26T02:16:15.695Z,100770.08
2018-12-26T02:18:44.786Z,100762.34
2018-12-26T02:21:13.903Z,100760.58
2018-12-26T02:23:42.960Z,100762.80
2018-12-26T02:26:12.136Z,100760.22
2018-12-26T02:28:41.239Z,100759.27
2018-12-26T02:31:10.328Z,100762.70
2018-12-26T02:33:39.407Z,100761.57
2018-12-26T02:36:08.537Z,100757.20
2018-12-26T02:38:37.665Z,100754.09
2018-12-26T02:41:06.727Z,100745.80
2018-12-26T02:43:35.798Z,100741.91
2018-12-26T02:46:04.888Z,100741.34
2018-12-26T02:48:34.011Z,100747.71
2018-12-26T02:51:03.336Z,100744.45
2018-12-26T02:53:39.579Z,100744.91
2018-12-26T02:56:08.755Z,100747.41
2018-12-26T02:58:37.908Z,100740.33
2018-12-26T03:01:11.464Z,100727.27
2018-12-26T03:03:41.822Z,100724.80
2018-12-26T03:06:10.832Z,100716.17
2018-12-26T03:08:41.514Z,100713.28
2018-12-26T03:11:12.202Z,100707.73
2018-12-26T03:13:42.605Z,100711.52
2018-12-26T03:16:12.155Z,100712.50
2018-12-26T03:18:41.175Z,100698.59
2018-12-26T03:21:10.238Z,100701.55
2018-12-26T03:23:41.620Z,100702.86
2018-12-26T03:26:10.689Z,100701.97
2018-12-26T03:28:39.815Z,100699.42
2018-12-26T03:31:08.939Z,100693.75
2018-12-26T03:33:38.040Z,100695.95
2018-12-26T03:36:09.633Z,100699.48
2018-12-26T03:38:40.993Z,100692.11
2018-12-26T03:41:10.049Z,100696.00
2018-12-26T03:43:42.202Z,100686.08
2018-12-26T03:46:13.699Z,100687.75
2018-12-26T03:48:42.819Z,100692.21
2018-12-26T03:51:11.921Z,100690.56
2018-12-26T03:53:42.278Z,100691.74
2018-12-26T03:56:11.373Z,100695.22
2018-12-26T03:58:40.431Z,100687.33
2018-12-26T04:01:09.610Z,100696.88
2018-12-26T04:03:38.650Z,100698.48
2018-12-26T04:06:07.664Z,100689.80
2018-12-26T04:08:36.741Z,100694.17
2018-12-26T04:11:05.825Z,100690.69
2018-12-26T04:13:35.179Z,100685.02
2018-12-26T04:16:04.616Z,100685.56
2018-12-26T04:18:33.748Z,100686.91
2018-12-26T04:21:02.829Z,100689.57
2018-12-26T04:23:31.940Z,100683.48
2018-12-26T04:26:01.065Z,100688.63
2018-12-26T04:28:34.333Z,100698.45
2018-12-26T04:31:03.373Z,100696.05
2018-12-26T04:33:33.690Z,100701.05
2018-12-26T04:36:02.847Z,100697.87
2018-12-26T04:38:31.923Z,100700.63
2018-12-26T04:41:00.972Z,100700.69
2018-12-26T04:43:30.073Z,100705.20
2018-12-26T04:45:59.170Z,100698.86
2018-12-26T04:48:28.302Z,100703.95
2018-12-26T04:50:57.341Z,100709.67
2018-12-26T04:53:28.426Z,100702.92
2018-12-26T04:55:57.906Z,100698.16
2018-12-26T04:58:26.984Z,100698.02
2018-12-26T05:00:56.021Z,100696.76
2018-12-26T05:03:25.093Z,100708.20
2018-12-26T05:05:54.162Z,100702.17
2018-12-26T05:08:23.242Z,100712.98
2018-12-26T05:10:52.314Z,100709.00
2018-12-26T05:13:21.453Z,100708.10
2018-12-26T05:15:50.569Z,100709.41
2018-12-26T05:18:19.622Z,100709.60
2018-12-26T05:20:49.040Z,100718.38
2018-12-26T05:23:18.068Z,100723.52
2018-12-26T05:25:49.171Z,100723.57
2018-12-26T05:28:18.320Z,100725.70
2018-12-26T05:30:47.485Z,100727.92
2018-12-26T05:33:20.146Z,100721.11
2018-12-26T05:35:49.226Z,100721.40
2018-12-26T05:38:22.030Z,100707.28
2018-12-26T05:40:51.260Z,100712.34
2018-12-26T05:43:22.024Z,100725.77
2018-12-26T05:45:53.475Z,100729.34
2018-12-26T05:48:24.555Z,100725.32
2018-12-26T05:50:53.612Z,100729.86
2018-12-26T05:53:23.744Z,100714.76
2018-12-26T05:55:52.851Z,100739.97
2018-12-26T05:58:21.887Z,100739.73
2018-12-26T06:00:50.904Z,100742.37
2018-12-26T06:03:19.964Z,100745.56
2018-12-26T06:05:49.080Z,100741.30
2018-12-26T06:08:20.266Z,100746.16
2018-12-26T06:10:49.361Z,100749.30
2018-12-26T06:13:18.469Z,100741.03
2018-12-26T06:15:47.504Z,100729.59
2018-12-26T06:18:16.575Z,100725.80
2018-12-26T06:20:45.702Z,100730.55
2018-12-26T06:23:14.806Z,100738.81
2018-12-26T06:25:43.918Z,100551.50
2018-12-26T06:28:13.048Z,100736.48
2018-12-26T06:30:42.208Z,100742.73
2018-12-26T06:33:11.299Z,100747.44
2018-12-26T06:35:40.460Z,100742.30
2018-12-26T06:38:09.472Z,100739.09
2018-12-26T06:40:38.602Z,100751.55
2018-12-26T06:43:07.940Z,100759.62
2018-12-26T06:45:37.175Z,100765.72
2018-12-26T06:48:07.498Z,100763.45
2018-12-26T06:50:36.862Z,100762.52
2018-12-26T06:53:06.106Z,100764.63
2018-12-26T06:55:35.289Z,100776.72
2018-12-26T06:58:07.746Z,100771.95
2018-12-26T07:00:39.114Z,100773.64
2018-12-26T07:03:11.212Z,100773.78
2018-12-26T07:05:42.679Z,100771.11
2018-12-26T07:08:13.827Z,100776.57
2018-12-26T07:10:43.257Z,100771.64
2018-12-26T07:13:14.671Z,100768.23
2018-12-26T07:15:45.595Z,100781.02
2018-12-26T07:18:14.779Z,100781.43
2018-12-26T07:20:44.545Z,100785.83
2018-12-26T07:23:15.617Z,100788.73
2018-12-26T07:25:44.966Z,100791.69
2018-12-26T07:28:14.383Z,100790.66
2018-12-26T07:30:45.748Z,100784.41
2018-12-26T07:33:15.062Z,100784.48
2018-12-26T07:35:44.621Z,100788.91
2018-12-26T07:38:13.951Z,100793.16
2018-12-26T07:40:43.047Z,100792.51
2018-12-26T07:43:13.233Z,100797.36
2018-12-26T07:45:42.453Z,100797.88
2018-12-26T07:48:14.500Z,100803.08
2018-12-26T07:50:43.952Z,100801.10
2018-12-26T07:53:14.676Z,100798.30
2018-12-26T07:55:43.889Z,100799.02
2018-12-26T07:58:17.573Z,100793.20
2018-12-26T08:00:45.912Z,100794.51
2018-12-26T08:03:15.008Z,100795.66
2018-12-26T08:05:46.206Z,100803.73
2018-12-26T08:08:16.320Z,100803.37
2018-12-26T08:10:45.462Z,100802.56
2018-12-26T08:13:14.564Z,100803.51
2018-12-26T08:15:43.659Z,100809.77
2018-12-26T08:18:13.273Z,100809.50
2018-12-26T08:20:42.278Z,100806.61
2018-12-26T08:23:11.597Z,100800.84
2018-12-26T08:25:40.652Z,100796.13
2018-12-26T08:28:09.754Z,100797.41
2018-12-26T08:30:38.821Z,100802.72
2018-12-26T08:33:08.203Z,100796.86
2018-12-26T08:35:37.708Z,100801.04
2018-12-26T08:38:07.960Z,100807.90
2018-12-26T08:41:04.628Z,100809.23
2018-12-26T08:43:33.792Z,100812.35
2018-12-26T08:46:02.826Z,100811.81
2018-12-26T08:48:31.942Z,100816.13
2018-12-26T08:51:01.085Z,100809.62
2018-12-26T08:53:32.616Z,100820.28
2018-12-26T08:56:01.735Z,100822.30
2018-12-26T08:58:35.175Z,100818.86
2018-12-26T09:01:02.599Z,100812.48
2018-12-26T09:03:34.846Z,100821.73
2018-12-26T09:06:03.938Z,100820.66
2018-12-26T09:08:32.985Z,100814.81
2018-12-26T09:11:03.252Z,100819.44
2018-12-26T09:13:34.664Z,100818.14
2018-12-26T09:16:03.788Z,100823.94
2018-12-26T09:18:32.875Z,100817.79
2018-12-26T09:21:01.935Z,100815.84
2018-12-26T09:23:31.111Z,100817.33
2018-12-26T09:26:03.297Z,100812.91
2018-12-26T09:28:32.349Z,100814.69
2018-12-26T09:31:01.372Z,100808.12
2018-12-26T09:33:30.526Z,100809.86
2018-12-26T09:35:59.666Z,100807.45
2018-12-26T09:38:30.428Z,100813.02
2018-12-26T09:41:05.324Z,100816.11
2018-12-26T09:43:34.373Z,100815.98
2018-12-26T09:46:03.516Z,100806.33
2018-12-26T09:48:34.718Z,100813.69
2018-12-26T09:51:03.977Z,100807.61
2018-12-26T09:53:34.789Z,100803.72
2018-12-26T09:56:03.841Z,100800.17
2018-12-26T09:58:32.894Z,100797.00
2018-12-26T10:01:02.062Z,100800.59
2018-12-26T10:03:31.119Z,100791.12
2018-12-26T10:06:00.233Z,100792.00
2018-12-26T10:08:29.287Z,100792.28
2018-12-26T10:10:58.380Z,100791.70
2018-12-26T10:13:27.488Z,100784.12
2018-12-26T10:15:56.708Z,100785.11
2018-12-26T10:18:25.840Z,100777.20
2018-12-26T10:20:54.944Z,100777.05
2018-12-26T10:23:23.933Z,100774.56
2018-12-26T10:25:54.288Z,100772.74
2018-12-26T10:28:23.390Z,100772.50
2018-12-26T10:30:52.469Z,100774.87
2018-12-26T10:33:21.500Z,100775.83
2018-12-26T10:35:50.637Z,100769.81
2018-12-26T10:38:19.701Z,100757.09
2018-12-26T10:40:48.946Z,100752.64
2018-12-26T10:43:18.100Z,100754.98
2018-12-26T10:45:47.162Z,100757.02
2018-12-26T10:48:16.232Z,100764.65
2018-12-26T10:50:45.422Z,100758.33
2018-12-26T10:53:14.579Z,100754.27
2018-12-26T10:55:43.726Z,100756.70
2018-12-26T10:58:12.898Z,100750.73
2018-12-26T11:00:41.912Z,100755.20
2018-12-26T11:03:11.040Z,100743.15
2018-12-26T11:05:40.150Z,100710.69
2018-12-26T11:08:09.294Z,100738.29
2018-12-26T11:10:41.053Z,100628.53
2018-12-26T11:13:10.183Z,100726.23
2018-12-26T11:15:40.398Z,100717.59
2018-12-26T11:18:10.737Z,100712.31
2018-12-26T11:20:41.214Z,100709.02
2018-12-26T11:23:10.377Z,100705.61
2018-12-26T11:25:40.559Z,100699.06
2018-12-26T11:28:10.978Z,100697.14
2018-12-26T11:30:40.207Z,100691.31
2018-12-26T11:33:09.315Z,100685.92
2018-12-26T11:35:40.739Z,100683.19
2018-12-26T11:38:09.818Z,100686.62
2018-12-26T11:40:40.439Z,100678.51
2018-12-26T11:43:09.534Z,100672.70
2018-12-26T11:45:39.715Z,100664.81
2018-12-26T11:48:09.892Z,100663.67
2018-12-26T11:50:38.921Z,100663.71
2018-12-26T11:53:08.898Z,100662.76
2018-12-26T11:55:38.021Z,100663.38
2018-12-26T11:58:07.146Z,100666.47
2018-12-26T12:00:36.261Z,100659.53
2018-12-26T12:03:05.532Z,100656.81
2018-12-26T12:05:36.873Z,100652.22
2018-12-26T12:08:08.019Z,100654.09
2018-12-26T12:10:37.103Z,100655.80
2018-12-26T12:13:06.206Z,100653.84
2018-12-26T12:15:35.288Z,100650.70
2018-12-26T12:18:05.912Z,100646.36
2018-12-26T12:20:34.976Z,100649.89
2018-12-26T12:23:04.004Z,100648.94
2018-12-26T12:25:33.047Z,100645.97
2018-12-26T12:28:02.134Z,100639.59
2018-12-26T12:30:31.361Z,100637.00
2018-12-26T12:33:00.477Z,100639.20
2018-12-26T12:35:29.575Z,100633.51
2018-12-26T12:38:00.463Z,100635.16
2018-12-26T12:40:29.596Z,100635.26
2018-12-26T12:42:58.715Z,100635.45
2018-12-26T12:45:30.138Z,100637.48
2018-12-26T12:48:00.272Z,100637.27
2018-12-26T12:50:29.399Z,100626.25
2018-12-26T12:52:58.511Z,100623.10
2018-12-26T12:55:27.666Z,100625.02
2018-12-26T12:57:58.779Z,100623.59
2018-12-26T13:00:27.967Z,100621.66
2018-12-26T13:03:00.542Z,100618.68
2018-12-26T13:05:30.182Z,100620.66
2018-12-26T13:08:00.393Z,100619.41
2018-12-26T13:10:29.482Z,100620.09
2018-12-26T13:12:58.581Z,100614.09
2018-12-26T13:15:27.761Z,100611.34
2018-12-26T13:17:59.198Z,100612.15
2018-12-26T13:20:28.298Z,100615.83
2018-12-26T13:22:58.783Z,100611.55
2018-12-26T13:25:27.926Z,100616.78
2018-12-26T13:27:57.019Z,100616.39
2018-12-26T13:30:26.133Z,100613.18
2018-12-26T13:32:55.216Z,100612.27
2018-12-26T13:35:24.404Z,100610.84
2018-12-26T13:37:53.962Z,100609.92
2018-12-26T13:40:23.053Z,100475.31
2018-12-26T13:42:52.185Z,100621.00
2018-12-26T13:45:22.850Z,100619.18
2018-12-26T13:47:51.928Z,100622.55
2018-12-26T13:50:20.983Z,100619.81
2018-12-26T13:52:50.097Z,100628.27
2018-12-26T13:55:19.294Z,100627.02
2018-12-26T13:57:50.915Z,100627.70
2018-12-26T14:00:20.359Z,100625.20
2018-12-26T14:02:49.482Z,100621.23
2018-12-26T14:05:18.596Z,100628.16
2018-12-26T14:07:49.993Z,100630.28
2018-12-26T14:10:19.016Z,100636.56
2018-12-26T14:12:48.136Z,100624.63
2018-12-26T14:15:17.206Z,100620.52
2018-12-26T14:17:46.654Z,100627.42
2018-12-26T14:20:15.770Z,100629.13
2018-12-26T14:22:44.868Z,100632.47
2018-12-26T14:25:13.925Z,100628.94
2018-12-26T14:27:46.932Z,100625.16
2018-12-26T14:30:16.043Z,100625.56
2018-12-26T14:32:45.133Z,100626.39
2018-12-26T14:35:18.736Z,100626.75
2018-12-26T14:37:47.823Z,100622.39
2018-12-26T14:40:16.975Z,100626.16
2018-12-26T14:42:46.145Z,100626.59
2018-12-26T14:45:20.160Z,100620.28
2018-12-26T14:47:51.802Z,100625.67
2018-12-26T14:50:20.834Z,100622.34
2018-12-26T14:52:49.887Z,100626.17
2018-12-26T14:55:19.043Z,100618.91
2018-12-26T14:57:48.130Z,100620.00
2018-12-26T15:00:20.244Z,100628.19
2018-12-26T15:02:49.441Z,100630.03
2018-12-26T15:05:18.535Z,100625.16
2018-12-26T15:07:47.753Z,100626.00
2018-12-26T15:10:16.820Z,100618.84
2018-12-26T15:12:45.876Z,100627.02
2018-12-26T15:15:14.982Z,100625.97
2018-12-26T15:17:44.171Z,100602.74
2018-12-26T15:20:13.271Z,100627.64
2018-12-26T15:22:43.473Z,100631.81
2018-12-26T15:25:12.679Z,100632.34
2018-12-26T15:27:41.901Z,100625.74
2018-12-26T15:30:11.086Z,100624.33
2018-12-26T15:32:40.205Z,100622.72
2018-12-26T15:35:11.580Z,100617.02
2018-12-26T15:37:47.786Z,100616.56
2018-12-26T15:40:16.940Z,100618.09
2018-12-26T15:42:48.511Z,100617.16
2018-12-26T15:45:17.818Z,100612.36
2018-12-26T15:47:47.011Z,100618.47
2018-12-26T15:50:18.480Z,100610.76
2018-12-26T15:52:49.079Z,100605.69
2018-12-26T15:55:19.356Z,100609.25
2018-12-26T15:57:48.504Z,100603.48
2018-12-26T16:00:17.596Z,100595.75
2018-12-26T16:02:46.728Z,100598.72
2018-12-26T16:05:15.864Z,100591.78
2018-12-26T16:07:45.095Z,100604.75
2018-12-26T16:10:14.285Z,100602.83
2018-12-26T16:12:46.466Z,100613.53
2018-12-26T16:15:18.388Z,100611.62
2018-12-26T16:17:50.419Z,100609.26
2018-12-26T16:20:22.096Z,100605.19
2018-12-26T16:22:53.068Z,100604.28
2018-12-26T16:25:23.503Z,100611.19
2018-12-26T16:27:52.599Z,100608.61
2018-12-26T16:30:21.740Z,100602.89
2018-12-26T16:32:51.062Z,100593.41
2018-12-26T16:35:20.121Z,100598.44
2018-12-26T16:38:01.297Z,100599.84
2018-12-26T16:40:23.961Z,100599.98
2018-12-26T16:42:58.241Z,100597.23
2018-12-26T16:45:27.307Z,100592.13
2018-12-26T16:47:56.436Z,100591.55
2018-12-26T16:50:27.078Z,100594.53
2018-12-26T16:52:57.756Z,100589.63
2018-12-26T16:55:26.918Z,100590.41
2018-12-26T16:57:56.021Z,100593.52
2018-12-26T17:00:25.066Z,100592.30
2018-12-26T17:02:54.232Z,100590.07
2018-12-26T17:05:23.312Z,100589.86
2018-12-26T17:07:52.449Z,100589.02
2018-12-26T17:10:23.035Z,100590.07
2018-12-26T17:12:52.184Z,100591.41
2018-12-26T17:15:21.411Z,100586.62
2018-12-26T17:17:50.491Z,100586.59
2018-12-26T17:20:19.669Z,100584.15
2018-12-26T17:22:48.793Z,100591.31
2018-12-26T17:25:17.899Z,100593.83
2018-12-26T17:27:46.980Z,100592.61
2018-12-26T17:30:16.058Z,100589.37
2018-12-26T17:32:47.409Z,100591.27
2018-12-26T17:35:16.683Z,100599.60
2018-12-26T17:37:45.991Z,100603.36
2018-12-26T17:40:15.119Z,100606.02
2018-12-26T17:42:44.199Z,100609.52
2018-12-26T17:45:18.365Z,100605.44
2018-12-26T17:47:51.951Z,100610.28
2018-12-26T17:50:48.943Z,100607.38
2018-12-26T17:53:32.245Z,100602.09
2018-12-26T17:56:28.787Z,100602.38
2018-12-26T17:59:09.790Z,100600.01
2018-12-26T18:02:01.552Z,100598.27
2018-12-26T18:04:30.616Z,100600.10
2018-12-26T18:06:59.673Z,100600.09
2018-12-26T18:09:31.132Z,100602.27
2018-12-26T18:12:11.229Z,100602.57
2018-12-26T18:14:30.974Z,100606.37
2018-12-26T18:17:00.048Z,100606.42
2018-12-26T18:19:29.201Z,100609.48
2018-12-26T18:21:58.273Z,100620.03
2018-12-26T18:24:27.556Z,100610.23
2018-12-26T18:26:56.716Z,100609.11
2018-12-26T18:29:25.880Z,100611.92
2018-12-26T18:31:55.092Z,100610.33
2018-12-26T18:34:27.895Z,100618.78
2018-12-26T18:36:57.002Z,100616.39
2018-12-26T18:39:26.257Z,100609.73
2018-12-26T18:41:56.428Z,100610.84
2018-12-26T18:44:25.654Z,100608.73
2018-12-26T18:46:54.730Z,100602.59
2018-12-26T18:49:23.827Z,100603.02
2018-12-26T18:51:52.878Z,100601.42
2018-12-26T18:54:22.082Z,100601.80
2018-12-26T18:56:51.163Z,100603.59
2018-12-26T18:59:20.334Z,100610.55
2018-12-26T19:01:51.212Z,100607.97
2018-12-26T19:04:20.269Z,100610.66
2018-12-26T19:06:49.433Z,100614.08
2018-12-26T19:09:18.515Z,100606.64
2018-12-26T19:11:47.603Z,100606.44
2018-12-26T19:14:16.717Z,100608.66
2018-12-26T19:16:45.747Z,100602.84
2018-12-26T19:19:14.772Z,100598.44
2018-12-26T19:21:43.876Z,100594.02
2018-12-26T19:24:12.885Z,100598.31
2018-12-26T19:26:42.230Z,100599.59
2018-12-26T19:29:11.273Z,100591.05
2018-12-26T19:31:43.948Z,100594.25
2018-12-26T19:34:13.010Z,100590.82
2018-12-26T19:36:42.118Z,100589.93
2018-12-26T19:39:11.184Z,100588.11
2018-12-26T19:41:43.331Z,100587.36
2018-12-26T19:44:14.803Z,100594.66
2018-12-26T19:46:43.854Z,100595.98
2018-12-26T19:49:12.964Z,100593.61
2018-12-26T19:51:43.396Z,100585.02
2018-12-26T19:54:12.446Z,100582.78
2018-12-26T19:56:41.537Z,100576.53
2018-12-26T19:59:10.670Z,100580.19
2018-12-26T20:01:48.166Z,100576.67
2018-12-26T20:04:13.145Z,100575.30
2018-12-26T20:06:42.216Z,100573.03
2018-12-26T20:09:11.313Z,100563.89
2018-12-26T20:11:41.671Z,100565.70
2018-12-26T20:14:12.282Z,100565.32
2018-12-26T20:16:42.588Z,100568.87
2018-12-26T20:19:11.667Z,100562.91
2018-12-26T20:21:42.290Z,100559.80
2018-12-26T20:24:11.350Z,100561.53
2018-12-26T20:26:40.490Z,100551.95
2018-12-26T20:29:09.534Z,100550.73
2018-12-26T20:31:38.740Z,100554.64
2018-12-26T20:34:07.950Z,100551.67
2018-12-26T20:36:37.111Z,100554.25
2018-12-26T20:39:07.420Z,100560.30
2018-12-26T20:41:36.552Z,100559.85
2018-12-26T20:44:06.199Z,100550.92
2018-12-26T20:46:37.273Z,100545.81
2018-12-26T20:49:06.367Z,100549.73
2018-12-26T20:51:38.923Z,100558.80
2018-12-26T20:54:08.074Z,100548.42
2018-12-26T20:56:40.468Z,100542.66
2018-12-26T20:59:09.967Z,100535.64
2018-12-26T21:01:39.752Z,100538.55
2018-12-26T21:04:09.433Z,100537.31
2018-12-26T21:06:39.136Z,100537.35
2018-12-26T21:09:09.224Z,100533.55
2018-12-26T21:11:38.527Z,100530.95
2018-12-26T21:14:09.805Z,100529.38
2018-12-26T21:16:40.179Z,100534.73
2018-12-26T21:19:09.990Z,100538.77
2018-12-26T21:21:42.443Z,100535.45
2018-12-26T21:24:11.832Z,100532.09
2018-12-26T21:26:40.877Z,100528.39
2018-12-26T21:29:14.616Z,100528.19
2018-12-26T21:31:44.078Z,100529.36
2018-12-26T21:34:13.399Z,100526.23
2018-12-26T21:36:42.617Z,100525.72
2018-12-26T21:39:12.178Z,100524.05
2018-12-26T21:41:43.681Z,100518.30
2018-12-26T21:44:12.784Z,100517.00
2018-12-26T21:46:41.827Z,100512.60
2018-12-26T21:49:10.940Z,100507.80
2018-12-26T21:51:41.071Z,100513.03
2018-12-26T21:54:13.204Z,100505.17
2018-12-26T21:56:42.423Z,100505.70
2018-12-26T21:59:13.819Z,100343.98
2018-12-26T22:01:46.371Z,100499.80
2018-12-26T22:04:15.631Z,100492.44
2018-12-26T22:06:47.454Z,100489.94
2018-12-26T22:09:16.518Z,100493.02
2018-12-26T22:11:46.619Z,100481.64
2018-12-26T22:14:16.325Z,100489.43
2018-12-26T22:16:45.418Z,100485.98
2018-12-26T22:19:14.665Z,100479.79
2018-12-26T22:21:43.788Z,100475.95
2018-12-26T22:24:12.873Z,100473.95
2018-12-26T22:26:43.331Z,100472.22
2018-12-26T22:29:12.733Z,100480.00
2018-12-26T22:31:41.876Z,100467.80
2018-12-26T22:34:10.912Z,100467.40
2018-12-26T22:36:42.450Z,100465.30
2018-12-26T22:39:11.556Z,100463.03
2018-12-26T22:41:40.622Z,100469.45
2018-12-26T22:44:09.663Z,100458.13
2018-12-26T22:46:38.741Z,100448.02
2018-12-26T22:49:07.850Z,100453.70
2018-12-26T22:51:41.806Z,100445.31
2018-12-26T22:54:07.719Z,100453.08
2018-12-26T22:56:36.795Z,100453.75
2018-12-26T22:59:08.102Z,100448.68
2018-12-26T23:01:37.296Z,100449.00
2018-12-26T23:04:06.406Z,100446.27
2018-12-26T23:06:37.321Z,100449.56
2018-12-26T23:09:07.942Z,100448.55
2018-12-26T23:11:40.332Z,100445.64
2018-12-26T23:14:09.448Z,100441.72
2018-12-26T23:16:38.697Z,100435.53
2018-12-26T23:19:07.904Z,100438.73
2018-12-26T23:21:37.105Z,100434.94
2018-12-26T23:24:08.709Z,100428.95
2018-12-26T23:26:40.045Z,100429.69
2018-12-26T23:29:16.778Z,100427.91
2018-12-26T23:31:46.161Z,100423.23
2018-12-26T23:34:15.301Z,100424.47
2018-12-26T23:36:44.311Z,100427.84
2018-12-26T23:39:13.389Z,100423.36
2018-12-26T23:41:42.465Z,100421.36
2018-12-26T23:44:11.524Z,100421.06
2018-12-26T23:46:40.710Z,100415.06
2018-12-26T23:49:12.002Z,100414.70
2018-12-26T23:51:41.944Z,100411.32
2018-12-26T23:54:11.060Z,100406.44
2018-12-26T23:56:40.155Z,100406.00
2018-12-26T23:59:09.341Z,100409.95
